Time;durP1;ratioP1;P1;durP2;ratioP2;P2;SDS_P1;SDS_P2;PMS_P1;PMS_P2;Temp;Humidity;BMP_temperature;BMP_pressure;BME280_temperature;BME280_humidity;BME280_pressure;Samples;Min_cycle;Max_cycle;Signal;HPM_P1;HPM_P2
2024/01/14 00:00:10;;;;;;;112.67;46.70;;;1.10;99.90;;;;;;5096379;28;20654;-61
2024/01/14 00:02:38;;;;;;;103.83;44.57;;;1.10;99.90;;;;;;5096045;28;20668;-62
2024/01/14 00:05:05;;;;;;;105.07;45.27;;;1.00;99.90;;;;;;5096559;28;20577;-62
2024/01/14 00:07:31;;;;;;;109.30;45.27;;;1.00;99.90;;;;;;5096196;28;20292;-62
2024/01/14 00:09:58;;;;;;;109.33;43.60;;;1.00;99.90;;;;;;5096549;28;20248;-62
2024/01/14 00:12:27;;;;;;;100.83;43.90;;;1.00;99.90;;;;;;5096116;28;20176;-62
2024/01/14 00:14:53;;;;;;;103.40;42.07;;;1.00;99.90;;;;;;5095943;28;20669;-62
2024/01/14 00:17:18;;;;;;;102.60;41.30;;;1.00;99.90;;;;;;5095628;28;20242;-62
2024/01/14 00:19:44;;;;;;;105.77;42.93;;;1.00;99.90;;;;;;5095887;28;20657;-62
2024/01/14 00:22:10;;;;;;;96.87;39.57;;;1.00;99.90;;;;;;5095861;28;20194;-61
2024/01/14 00:24:36;;;;;;;120.13;44.37;;;1.00;99.90;;;;;;5094633;28;20185;-62
2024/01/14 00:27:02;;;;;;;100.80;42.00;;;1.00;99.90;;;;;;5096121;28;20193;-62
2024/01/14 00:29:28;;;;;;;102.33;44.03;;;1.00;99.90;;;;;;5095822;28;20645;-62
2024/01/14 00:31:53;;;;;;;104.50;39.50;;;1.00;99.90;;;;;;5095660;28;20542;-62
2024/01/14 00:34:19;;;;;;;94.00;38.90;;;1.00;99.90;;;;;;5095422;28;20222;-61
2024/01/14 00:36:45;;;;;;;99.77;40.57;;;1.10;99.90;;;;;;5096033;28;20193;-62
2024/01/14 00:39:11;;;;;;;93.47;38.93;;;1.10;99.90;;;;;;5095617;28;20201;-62
2024/01/14 00:41:37;;;;;;;99.03;38.80;;;1.10;99.90;;;;;;5095920;28;20185;-62
2024/01/14 00:44:02;;;;;;;86.73;36.83;;;1.10;99.90;;;;;;5095442;28;20264;-61
2024/01/14 00:46:31;;;;;;;100.73;39.70;;;1.10;99.90;;;;;;5095563;28;20205;-63
2024/01/14 00:48:57;;;;;;;90.37;39.77;;;1.10;99.90;;;;;;5094144;28;20201;-62
2024/01/14 00:51:23;;;;;;;90.93;37.97;;;1.10;99.90;;;;;;5093887;28;20246;-62
2024/01/14 00:53:49;;;;;;;87.93;35.97;;;1.10;99.90;;;;;;5095253;28;20559;-62
2024/01/14 00:56:15;;;;;;;86.13;37.90;;;1.20;99.90;;;;;;5095127;28;20200;-62
2024/01/14 00:58:41;;;;;;;99.33;40.17;;;1.10;99.90;;;;;;5095093;28;20181;-63
2024/01/14 01:01:07;;;;;;;96.43;39.57;;;1.10;99.90;;;;;;5095402;28;20285;-61
2024/01/14 01:03:33;;;;;;;84.37;37.23;;;1.10;99.90;;;;;;5094911;28;20188;-62
2024/01/14 01:05:59;;;;;;;94.83;39.23;;;1.10;99.90;;;;;;5095244;28;20204;-62
2024/01/14 01:08:25;;;;;;;93.57;38.17;;;1.10;99.90;;;;;;5095022;28;20733;-62
2024/01/14 01:10:50;;;;;;;102.70;39.73;;;1.10;99.90;;;;;;5095285;28;20234;-63
2024/01/14 01:13:16;;;;;;;95.27;39.07;;;1.10;99.90;;;;;;5095190;28;20174;-62
2024/01/14 01:15:42;;;;;;;96.97;39.57;;;1.10;99.90;;;;;;5094803;28;20291;-62
2024/01/14 01:18:09;;;;;;;97.80;39.67;;;1.10;99.90;;;;;;5094964;28;20197;-62
2024/01/14 01:20:35;;;;;;;97.43;40.30;;;1.10;99.90;;;;;;5094785;28;20205;-62
2024/01/14 01:23:00;;;;;;;88.10;39.03;;;1.10;99.90;;;;;;5095136;28;20177;-61
2024/01/14 01:25:26;;;;;;;82.13;36.63;;;1.10;99.90;;;;;;5094687;28;20177;-63
2024/01/14 01:27:52;;;;;;;89.30;38.53;;;1.10;99.90;;;;;;5094654;28;20203;-62
2024/01/14 01:30:18;;;;;;;82.30;35.73;;;1.20;99.90;;;;;;5095065;28;20189;-62
2024/01/14 01:32:43;;;;;;;77.47;37.17;;;1.20;99.90;;;;;;5094666;28;20172;-62
2024/01/14 01:35:09;;;;;;;86.63;36.20;;;1.20;99.90;;;;;;5094450;28;20229;-62
2024/01/14 01:37:35;;;;;;;87.40;36.03;;;1.20;99.90;;;;;;5094790;28;20243;-61
2024/01/14 01:40:01;;;;;;;86.70;37.47;;;1.10;99.90;;;;;;5094705;28;20184;-62
2024/01/14 01:42:27;;;;;;;83.20;37.17;;;1.10;99.90;;;;;;5102614;27;20179;-62
2024/01/14 01:44:53;;;;;;;82.90;34.83;;;1.10;99.90;;;;;;5126454;27;20176;-62
2024/01/14 01:47:19;;;;;;;82.83;38.67;;;1.10;99.90;;;;;;5130137;27;20231;-62
2024/01/14 01:49:46;;;;;;;80.40;34.90;;;1.20;99.90;;;;;;5134092;27;20178;-61
2024/01/14 01:52:12;;;;;;;93.93;39.47;;;1.10;99.90;;;;;;5115231;27;20195;-61
2024/01/14 01:54:39;;;;;;;83.13;37.40;;;1.10;99.90;;;;;;5130999;27;20202;-62
2024/01/14 01:57:06;;;;;;;91.57;38.23;;;1.20;99.90;;;;;;5122852;27;20248;-62
2024/01/14 01:59:33;;;;;;;87.70;39.47;;;1.20;99.90;;;;;;5119707;27;20263;-61
2024/01/14 02:02:00;;;;;;;92.63;35.63;;;1.20;99.90;;;;;;5103490;27;20214;-63
2024/01/14 02:04:26;;;;;;;92.73;37.90;;;1.20;99.90;;;;;;5116520;27;20175;-62
2024/01/14 02:06:52;;;;;;;87.40;38.50;;;1.20;99.90;;;;;;5125685;27;20275;-62
2024/01/14 02:09:19;;;;;;;81.37;37.27;;;1.20;99.90;;;;;;5125273;27;20610;-62
2024/01/14 02:11:45;;;;;;;84.47;37.10;;;1.20;99.90;;;;;;5115242;28;20251;-62
2024/01/14 02:14:10;;;;;;;82.47;35.47;;;1.20;99.90;;;;;;5123655;27;20207;-62
2024/01/14 02:16:36;;;;;;;75.97;34.60;;;1.20;99.90;;;;;;5124762;27;20203;-62
2024/01/14 02:19:02;;;;;;;77.83;34.33;;;1.30;99.90;;;;;;5118107;27;20185;-62
2024/01/14 02:21:42;;;;;;;77.77;37.27;;;1.30;99.90;;;;;;5123340;27;20254;-62
2024/01/14 02:24:27;;;;;;;82.40;37.10;;;1.30;99.90;;;;;;5123713;27;20164;-62
2024/01/14 02:26:53;;;;;;;76.97;34.17;;;1.30;99.90;;;;;;5127669;27;20260;-62
2024/01/14 02:29:19;;;;;;;62.27;31.33;;;1.30;99.90;;;;;;5132330;27;20221;-62
2024/01/14 02:31:45;;;;;;;73.60;31.93;;;1.30;99.90;;;;;;5120165;27;20203;-63
2024/01/14 02:34:12;;;;;;;70.27;32.53;;;1.30;99.90;;;;;;5116950;28;20649;-62
2024/01/14 02:36:38;;;;;;;77.63;36.17;;;1.30;99.90;;;;;;5130537;27;20204;-62
2024/01/14 02:39:05;;;;;;;75.50;34.00;;;1.20;99.90;;;;;;5122951;28;20182;-62
2024/01/14 02:41:31;;;;;;;74.67;32.40;;;1.20;99.90;;;;;;5133073;28;20194;-60
2024/01/14 02:43:57;;;;;;;77.97;34.00;;;1.20;99.90;;;;;;5118814;28;20610;-62
2024/01/14 02:46:24;;;;;;;68.37;33.63;;;1.20;99.90;;;;;;5126343;27;20212;-62
2024/01/14 02:48:49;;;;;;;67.70;31.93;;;1.20;99.90;;;;;;5117411;28;20186;-61
2024/01/14 02:51:15;;;;;;;69.93;31.57;;;1.20;99.90;;;;;;5121695;28;20283;-62
2024/01/14 02:53:42;;;;;;;67.47;33.30;;;1.20;99.90;;;;;;5131229;28;20184;-61
2024/01/14 02:56:10;;;;;;;76.20;33.13;;;1.20;99.90;;;;;;5114017;28;20653;-62
2024/01/14 02:58:36;;;;;;;65.70;30.03;;;1.20;99.90;;;;;;5124922;28;20172;-61
2024/01/14 03:01:02;;;;;;;72.37;33.47;;;1.20;99.90;;;;;;5125967;28;20191;-62
2024/01/14 03:03:28;;;;;;;65.13;32.87;;;1.20;99.90;;;;;;5126799;27;20176;-60
2024/01/14 03:05:53;;;;;;;74.13;32.67;;;1.20;99.90;;;;;;5129769;28;20183;-62
2024/01/14 03:08:19;;;;;;;66.27;31.40;;;1.20;99.90;;;;;;5133956;27;20191;-63
2024/01/14 03:10:45;;;;;;;63.63;31.53;;;1.20;99.90;;;;;;5117596;27;20208;-62
2024/01/14 03:13:15;;;;;;;65.30;31.43;;;1.30;99.90;;;;;;5135977;27;20187;-62
2024/01/14 03:15:44;;;;;;;69.27;31.80;;;1.20;99.90;;;;;;5121649;27;20657;-62
2024/01/14 03:18:11;;;;;;;67.53;32.60;;;1.30;99.90;;;;;;5129179;27;20191;-61
2024/01/14 03:20:37;;;;;;;65.87;33.00;;;1.20;99.90;;;;;;5135632;27;20172;-63
2024/01/14 03:23:03;;;;;;;66.23;30.53;;;1.20;99.90;;;;;;5119465;27;20270;-62
2024/01/14 03:25:29;;;;;;;68.90;31.60;;;1.20;99.90;;;;;;5122056;27;20661;-62
2024/01/14 03:27:55;;;;;;;63.50;30.27;;;1.20;99.90;;;;;;5129053;27;20226;-62
2024/01/14 03:30:21;;;;;;;64.80;30.00;;;1.20;99.90;;;;;;5115051;27;20184;-62
2024/01/14 03:32:47;;;;;;;57.37;28.50;;;1.20;99.90;;;;;;5128392;27;20181;-61
2024/01/14 03:35:12;;;;;;;52.77;28.37;;;1.20;99.90;;;;;;5115783;28;20208;-62
2024/01/14 03:37:38;;;;;;;56.83;28.10;;;1.20;99.90;;;;;;5137169;27;20700;-62
2024/01/14 03:40:05;;;;;;;60.37;28.97;;;1.10;99.90;;;;;;5125864;27;20176;-62
2024/01/14 03:42:30;;;;;;;56.27;27.97;;;1.10;99.90;;;;;;5117396;28;20177;-62
2024/01/14 03:44:56;;;;;;;64.80;29.00;;;1.10;99.90;;;;;;5137256;27;20570;-62
2024/01/14 03:47:22;;;;;;;54.97;28.33;;;1.10;99.90;;;;;;5124315;27;20669;-62
2024/01/14 03:49:48;;;;;;;54.13;29.37;;;1.00;99.90;;;;;;5131758;27;20542;-62
2024/01/14 03:52:14;;;;;;;59.87;30.63;;;1.00;99.90;;;;;;5116735;28;20191;-62
2024/01/14 03:54:39;;;;;;;52.40;28.27;;;1.00;99.90;;;;;;5133329;27;20183;-62
2024/01/14 03:57:05;;;;;;;57.63;29.47;;;1.00;99.90;;;;;;5128791;27;20188;-62
2024/01/14 03:59:31;;;;;;;52.67;27.07;;;1.00;99.90;;;;;;5133987;27;20177;-62
2024/01/14 04:01:57;;;;;;;59.23;30.70;;;1.00;99.90;;;;;;5105342;27;20184;-62
2024/01/14 04:04:23;;;;;;;58.40;30.57;;;1.10;99.90;;;;;;5130090;27;20172;-62
2024/01/14 04:06:48;;;;;;;60.33;29.27;;;1.10;99.90;;;;;;5133082;27;20225;-62
2024/01/14 04:09:14;;;;;;;63.73;30.20;;;1.00;99.90;;;;;;5119525;27;20618;-62
2024/01/14 04:11:40;;;;;;;61.53;28.60;;;1.10;99.90;;;;;;5127821;27;20665;-62
2024/01/14 04:14:07;;;;;;;65.77;30.80;;;1.10;99.90;;;;;;5121278;27;20555;-61
2024/01/14 04:16:40;;;;;;;65.27;32.70;;;1.10;99.90;;;;;;5126286;27;20744;-62
2024/01/14 04:19:06;;;;;;;66.87;31.70;;;1.10;99.90;;;;;;5122104;27;20197;-61
2024/01/14 04:21:32;;;;;;;64.00;33.00;;;1.20;99.90;;;;;;5126673;27;20207;-62
2024/01/14 04:24:04;;;;;;;74.30;35.47;;;1.10;99.90;;;;;;5126161;27;20179;-62
2024/01/14 04:26:30;;;;;;;71.83;33.03;;;1.10;99.90;;;;;;5124790;27;20207;-62
2024/01/14 04:28:56;;;;;;;65.73;32.20;;;1.10;99.90;;;;;;5126546;27;20623;-62
2024/01/14 04:31:22;;;;;;;69.93;32.43;;;1.10;99.90;;;;;;5114037;27;20266;-62
2024/01/14 04:33:48;;;;;;;73.40;33.00;;;1.10;99.90;;;;;;5122092;27;20535;-62
2024/01/14 04:36:14;;;;;;;68.73;32.33;;;1.10;99.90;;;;;;5127134;27;20291;-62
2024/01/14 04:38:40;;;;;;;68.17;31.23;;;1.10;99.90;;;;;;5123769;27;20194;-61
2024/01/14 04:41:06;;;;;;;64.67;33.27;;;1.10;99.90;;;;;;5115928;28;20168;-62
2024/01/14 04:43:32;;;;;;;59.80;30.07;;;1.10;99.90;;;;;;5126057;27;20184;-62
2024/01/14 04:45:58;;;;;;;65.10;31.00;;;1.10;99.90;;;;;;5116361;28;20180;-62
2024/01/14 04:48:24;;;;;;;61.50;30.40;;;1.10;99.90;;;;;;5128606;27;20206;-62
2024/01/14 04:50:51;;;;;;;68.73;30.60;;;1.10;99.90;;;;;;5118343;27;20279;-62
2024/01/14 04:53:17;;;;;;;62.63;30.47;;;1.10;99.90;;;;;;5124282;27;20214;-61
2024/01/14 04:55:43;;;;;;;63.77;30.87;;;1.20;99.90;;;;;;5123015;27;20664;-62
2024/01/14 04:58:08;;;;;;;55.57;29.17;;;1.20;99.90;;;;;;5127974;27;20225;-62
2024/01/14 05:00:35;;;;;;;52.93;26.00;;;1.20;99.90;;;;;;5108957;28;20215;-62
2024/01/14 05:03:01;;;;;;;53.43;29.27;;;1.20;99.90;;;;;;5127689;27;20169;-61
2024/01/14 05:05:26;;;;;;;55.30;29.00;;;1.10;99.90;;;;;;5123716;27;20184;-62
2024/01/14 05:07:52;;;;;;;61.87;29.63;;;1.10;99.90;;;;;;5127441;27;20203;-62
2024/01/14 05:10:18;;;;;;;58.23;29.30;;;1.20;99.90;;;;;;5126854;27;20172;-62
2024/01/14 05:12:44;;;;;;;53.57;29.47;;;1.20;99.90;;;;;;5125861;27;20176;-62
2024/01/14 05:15:09;;;;;;;59.80;30.47;;;1.20;99.90;;;;;;5128568;27;20290;-61
2024/01/14 05:17:36;;;;;;;49.80;27.10;;;1.30;99.90;;;;;;5115272;28;20184;-62
2024/01/14 05:20:02;;;;;;;51.03;29.60;;;1.20;99.90;;;;;;5129311;27;20168;-62
2024/01/14 05:22:28;;;;;;;53.97;28.47;;;1.20;99.90;;;;;;5123660;27;20260;-62
2024/01/14 05:24:55;;;;;;;61.03;29.70;;;1.20;99.90;;;;;;5133476;27;20191;-62
2024/01/14 05:27:20;;;;;;;63.47;29.83;;;1.10;99.90;;;;;;5119624;27;20579;-62
2024/01/14 05:29:46;;;;;;;55.37;29.53;;;1.20;99.90;;;;;;5128704;27;20255;-62
2024/01/14 05:32:16;;;;;;;55.37;28.57;;;1.20;99.90;;;;;;5114238;27;20171;-62
2024/01/14 05:34:42;;;;;;;57.03;30.60;;;1.20;99.90;;;;;;5117895;27;20250;-62
2024/01/14 05:37:08;;;;;;;66.87;32.17;;;1.20;99.90;;;;;;5124695;27;20192;-61
2024/01/14 05:39:34;;;;;;;69.73;33.33;;;1.20;99.90;;;;;;5123134;27;20176;-62
2024/01/14 05:42:01;;;;;;;72.00;34.40;;;1.20;99.90;;;;;;5118635;27;20164;-62
2024/01/14 05:44:26;;;;;;;76.53;33.77;;;1.20;99.90;;;;;;5130500;27;20164;-61
2024/01/14 05:46:53;;;;;;;74.37;36.23;;;1.20;99.90;;;;;;5118732;27;20245;-62
2024/01/14 05:49:20;;;;;;;79.77;36.90;;;1.20;99.90;;;;;;5131935;27;20667;-63
2024/01/14 05:51:46;;;;;;;77.53;37.50;;;1.20;99.90;;;;;;5131817;27;20192;-61
2024/01/14 05:54:13;;;;;;;83.53;37.83;;;1.20;99.90;;;;;;5123338;27;20172;-62
2024/01/14 05:56:38;;;;;;;80.37;37.50;;;1.20;99.90;;;;;;5123110;27;20573;-62
2024/01/14 05:59:04;;;;;;;88.07;39.30;;;1.20;99.90;;;;;;5130966;27;20187;-61
2024/01/14 06:01:30;;;;;;;88.67;36.90;;;1.20;99.90;;;;;;5101972;27;20645;-62
2024/01/14 06:03:56;;;;;;;85.37;39.53;;;1.20;99.90;;;;;;5125230;27;20578;-63
2024/01/14 06:06:22;;;;;;;96.57;38.93;;;1.20;99.90;;;;;;5120809;27;20175;-61
2024/01/14 06:08:49;;;;;;;93.67;38.93;;;1.20;99.90;;;;;;5129706;27;20200;-62
2024/01/14 06:11:15;;;;;;;83.23;37.23;;;1.20;99.90;;;;;;5127071;27;20192;-62
2024/01/14 06:13:41;;;;;;;88.33;38.50;;;1.20;99.90;;;;;;5118714;27;20187;-62
2024/01/14 06:16:08;;;;;;;89.00;38.87;;;1.20;99.90;;;;;;5102537;28;20192;-62
2024/01/14 06:18:34;;;;;;;85.33;36.63;;;1.20;99.90;;;;;;5095925;28;20239;-62
2024/01/14 06:21:03;;;;;;;90.60;37.03;;;1.20;99.90;;;;;;5093698;28;20164;-62
2024/01/14 06:23:29;;;;;;;86.03;38.33;;;1.20;99.90;;;;;;5093620;28;20553;-61
2024/01/14 06:25:55;;;;;;;90.67;39.33;;;1.20;99.90;;;;;;5093379;28;20181;-62
2024/01/14 06:28:21;;;;;;;91.20;39.60;;;1.10;99.90;;;;;;5093221;28;20197;-62
2024/01/14 06:30:47;;;;;;;99.37;41.23;;;1.10;99.90;;;;;;5093535;28;20185;-62
2024/01/14 06:33:13;;;;;;;87.87;38.70;;;1.10;99.90;;;;;;5093232;28;20666;-62
2024/01/14 06:35:39;;;;;;;93.27;41.63;;;1.10;99.90;;;;;;5093783;28;20197;-61
2024/01/14 06:38:08;;;;;;;91.40;39.73;;;1.10;99.90;;;;;;5103379;28;20196;-62
2024/01/14 06:40:34;;;;;;;108.93;42.27;;;1.10;99.90;;;;;;5104173;28;20258;-62
2024/01/14 06:42:59;;;;;;;101.67;42.37;;;1.10;99.90;;;;;;5113517;28;20190;-62
2024/01/14 06:45:25;;;;;;;99.33;42.13;;;1.10;99.90;;;;;;5113815;28;20641;-61
2024/01/14 06:47:51;;;;;;;99.23;41.77;;;1.10;99.90;;;;;;5113804;28;20204;-62
2024/01/14 06:50:17;;;;;;;108.97;43.07;;;1.10;99.90;;;;;;5117462;28;20182;-62
2024/01/14 06:52:42;;;;;;;105.17;44.27;;;1.10;99.90;;;;;;5118279;28;20173;-62
2024/01/14 06:55:10;;;;;;;104.63;44.00;;;1.10;99.90;;;;;;5107781;28;20670;-62
2024/01/14 06:57:36;;;;;;;106.03;42.67;;;1.10;99.90;;;;;;5097293;28;20250;-62
2024/01/14 07:00:07;;;;;;;97.30;43.03;;;1.20;99.90;;;;;;5097225;28;20185;-62
2024/01/14 07:02:33;;;;;;;102.43;43.57;;;1.10;99.90;;;;;;5097748;28;20154;-62
2024/01/14 07:04:59;;;;;;;93.63;40.30;;;1.10;99.90;;;;;;5095599;28;20707;-62
2024/01/14 07:07:25;;;;;;;96.83;42.63;;;1.10;99.90;;;;;;5097003;28;20593;-62
2024/01/14 07:09:51;;;;;;;93.47;41.07;;;1.10;99.90;;;;;;5097106;28;20177;-62
2024/01/14 07:12:16;;;;;;;99.33;40.97;;;1.10;99.90;;;;;;5097036;28;20173;-61
2024/01/14 07:14:42;;;;;;;88.57;40.03;;;1.10;99.90;;;;;;5097189;28;20157;-62
2024/01/14 07:17:08;;;;;;;102.10;42.00;;;1.10;99.90;;;;;;5096770;28;20192;-62
2024/01/14 07:19:37;;;;;;;97.10;43.33;;;1.10;99.90;;;;;;5096591;28;20252;-62
2024/01/14 07:22:04;;;;;;;84.50;37.20;;;1.10;99.90;;;;;;5094657;28;20721;-62
2024/01/14 07:24:30;;;;;;;76.13;36.67;;;1.10;99.90;;;;;;5094601;28;20173;-62
2024/01/14 07:26:57;;;;;;;80.50;35.00;;;1.10;99.90;;;;;;5096253;28;20195;-62
2024/01/14 07:29:22;;;;;;;79.03;36.10;;;1.10;99.90;;;;;;5095110;28;20177;-62
2024/01/14 07:31:48;;;;;;;73.47;35.37;;;1.00;99.90;;;;;;5095027;28;20264;-61
2024/01/14 07:34:14;;;;;;;86.13;36.53;;;1.00;99.90;;;;;;5096392;28;20223;-62
2024/01/14 07:36:39;;;;;;;76.70;33.33;;;1.00;99.90;;;;;;5096515;28;20205;-62
2024/01/14 07:39:05;;;;;;;77.73;34.30;;;1.00;99.90;;;;;;5095390;28;20669;-63
2024/01/14 07:41:31;;;;;;;71.77;34.03;;;1.00;99.90;;;;;;5096669;28;20177;-63
2024/01/14 07:43:57;;;;;;;80.10;33.90;;;1.00;99.90;;;;;;5096528;28;20176;-63
2024/01/14 07:46:22;;;;;;;73.50;33.27;;;1.00;99.90;;;;;;5096512;28;20596;-62
2024/01/14 07:48:48;;;;;;;71.50;33.40;;;1.00;99.90;;;;;;5096035;28;20767;-63
2024/01/14 07:51:14;;;;;;;67.53;33.07;;;1.00;99.90;;;;;;5096098;28;20208;-62
2024/01/14 07:53:40;;;;;;;73.23;33.13;;;1.00;99.90;;;;;;5096166;28;20566;-62
2024/01/14 07:56:06;;;;;;;67.40;34.17;;;1.00;99.90;;;;;;5096289;28;20208;-62
2024/01/14 07:58:31;;;;;;;76.87;34.20;;;1.00;99.90;;;;;;5095857;28;20633;-63
2024/01/14 08:00:57;;;;;;;78.63;35.67;;;1.00;99.90;;;;;;5096011;28;20295;-63
2024/01/14 08:03:23;;;;;;;84.30;35.73;;;1.00;99.90;;;;;;5095708;28;20181;-61
2024/01/14 08:05:49;;;;;;;77.97;35.67;;;1.10;99.90;;;;;;5095896;28;20176;-62
2024/01/14 08:08:14;;;;;;;84.43;37.87;;;1.10;99.90;;;;;;5095882;28;20200;-62
2024/01/14 08:10:41;;;;;;;96.67;37.63;;;1.10;99.90;;;;;;5096081;28;20173;-63
2024/01/14 08:13:07;;;;;;;86.07;36.90;;;1.10;99.90;;;;;;5095755;28;20251;-63
2024/01/14 08:15:33;;;;;;;87.57;38.47;;;1.10;99.90;;;;;;5095976;28;20289;-63
2024/01/14 08:17:59;;;;;;;95.23;39.13;;;1.10;99.90;;;;;;5094367;28;20234;-63
2024/01/14 08:20:25;;;;;;;93.97;40.00;;;1.00;99.90;;;;;;5094160;28;20193;-62
2024/01/14 08:22:55;;;;;;;98.73;39.87;;;1.00;99.90;;;;;;5095591;28;20184;-63
2024/01/14 08:25:24;;;;;;;91.90;39.30;;;1.00;99.90;;;;;;5095624;28;20182;-64
2024/01/14 08:27:52;;;;;;;95.10;42.20;;;1.00;99.90;;;;;;5095714;28;20232;-63
2024/01/14 08:30:18;;;;;;;97.90;39.70;;;1.00;99.90;;;;;;5095717;28;20553;-63
2024/01/14 08:32:44;;;;;;;100.57;42.00;;;1.00;99.90;;;;;;5095715;28;20150;-63
2024/01/14 08:35:13;;;;;;;108.60;42.53;;;1.00;99.90;;;;;;5095045;28;20193;-63
2024/01/14 08:37:43;;;;;;;98.03;39.60;;;1.00;99.90;;;;;;5095262;28;20188;-63
2024/01/14 08:40:12;;;;;;;97.73;38.30;;;1.00;99.90;;;;;;5095573;28;20649;-63
2024/01/14 08:42:43;;;;;;;97.07;39.17;;;0.90;99.90;;;;;;5095311;28;20169;-63
2024/01/14 08:45:13;;;;;;;88.03;36.13;;;0.90;99.90;;;;;;5095272;28;20240;-63
2024/01/14 08:47:42;;;;;;;87.77;37.43;;;0.90;99.90;;;;;;5095079;28;20193;-63
2024/01/14 08:50:09;;;;;;;84.93;36.17;;;0.90;99.90;;;;;;5094839;28;20633;-63
2024/01/14 08:52:37;;;;;;;87.40;36.27;;;0.90;99.90;;;;;;5095379;28;20161;-63
2024/01/14 08:55:03;;;;;;;97.20;38.60;;;0.90;99.90;;;;;;5094882;28;20200;-63
2024/01/14 08:57:29;;;;;;;92.63;38.40;;;0.90;99.90;;;;;;5094921;28;20537;-63
2024/01/14 08:59:57;;;;;;;103.00;39.83;;;0.90;99.90;;;;;;5094879;28;20180;-63
2024/01/14 09:02:23;;;;;;;99.80;40.70;;;0.90;99.90;;;;;;5093506;28;20587;-62
2024/01/14 09:04:48;;;;;;;101.27;40.80;;;0.90;99.90;;;;;;5094648;28;20200;-63
2024/01/14 09:07:14;;;;;;;98.33;40.77;;;0.90;99.90;;;;;;5094680;28;20223;-63
2024/01/14 09:09:40;;;;;;;103.50;39.17;;;1.00;99.90;;;;;;5093928;28;20165;-62
2024/01/14 09:12:06;;;;;;;112.07;39.73;;;1.00;99.90;;;;;;5094850;28;20205;-62
2024/01/14 09:14:32;;;;;;;96.77;38.77;;;1.00;99.90;;;;;;5094612;28;20208;-63
2024/01/14 09:16:58;;;;;;;89.70;37.07;;;1.00;99.90;;;;;;5094660;28;20285;-62
2024/01/14 09:19:24;;;;;;;95.50;38.17;;;1.00;99.90;;;;;;5094844;28;20160;-64
2024/01/14 09:21:51;;;;;;;87.20;37.20;;;1.00;99.90;;;;;;5094368;28;20264;-63
2024/01/14 09:24:17;;;;;;;87.67;35.80;;;1.00;99.90;;;;;;5094711;28;20230;-63
2024/01/14 09:26:42;;;;;;;79.80;36.87;;;1.00;99.90;;;;;;5094280;28;20200;-62
2024/01/14 09:29:08;;;;;;;74.37;34.13;;;1.00;99.90;;;;;;5094400;28;20274;-63
2024/01/14 09:31:34;;;;;;;86.67;35.17;;;1.00;99.90;;;;;;5094289;28;20177;-62
2024/01/14 09:33:59;;;;;;;77.43;33.00;;;1.00;99.90;;;;;;5094053;28;20184;-63
2024/01/14 09:36:27;;;;;;;70.93;32.27;;;1.00;99.90;;;;;;5094669;28;20196;-62
2024/01/14 09:38:53;;;;;;;79.00;33.20;;;1.00;99.90;;;;;;5094132;28;20664;-62
2024/01/14 09:41:54;;;;;;;69.00;31.10;;;1.00;99.90;;;;;;5094390;28;20169;-62
2024/01/14 09:44:20;;;;;;;65.50;32.83;;;1.00;99.90;;;;;;5051955;28;20191;-63
2024/01/14 09:46:47;;;;;;;67.70;30.53;;;1.00;99.90;;;;;;5094220;28;20197;-63
2024/01/14 09:49:15;;;;;;;70.10;29.63;;;1.10;99.90;;;;;;5099103;28;20191;-63
2024/01/14 09:51:41;;;;;;;67.87;30.40;;;1.00;99.90;;;;;;5093725;28;20337;-64
2024/01/14 09:54:07;;;;;;;65.10;31.30;;;1.10;99.90;;;;;;5094669;28;20688;-63
2024/01/14 09:56:35;;;;;;;73.97;32.47;;;1.00;99.90;;;;;;5097749;28;20588;-63
2024/01/14 09:59:03;;;;;;;68.37;30.60;;;1.00;99.90;;;;;;5099377;28;20221;-63
2024/01/14 10:01:33;;;;;;;65.03;30.10;;;1.00;99.90;;;;;;5095653;28;20259;-65
2024/01/14 10:04:00;;;;;;;66.43;29.13;;;1.00;99.90;;;;;;5096289;28;20176;-65
2024/01/14 10:06:27;;;;;;;76.30;32.13;;;1.00;99.90;;;;;;5093985;28;20181;-64
2024/01/14 10:08:53;;;;;;;71.07;31.40;;;1.00;99.90;;;;;;5093551;28;20185;-63
2024/01/14 10:11:19;;;;;;;71.37;31.93;;;1.00;99.90;;;;;;5093910;28;20189;-63
2024/01/14 10:13:46;;;;;;;59.80;27.73;;;1.00;99.90;;;;;;5093604;28;20179;-63
2024/01/14 10:16:12;;;;;;;71.47;30.93;;;1.00;99.90;;;;;;5093506;28;20276;-63
2024/01/14 10:18:38;;;;;;;59.70;30.13;;;1.00;99.90;;;;;;5094330;28;20520;-63
2024/01/14 10:21:04;;;;;;;65.57;31.27;;;1.10;99.90;;;;;;5093297;28;20245;-64
2024/01/14 10:23:31;;;;;;;65.80;30.20;;;1.00;99.90;;;;;;5093725;28;20240;-63
2024/01/14 10:26:02;;;;;;;69.90;30.67;;;1.00;99.90;;;;;;5093758;28;20609;-63
2024/01/14 10:28:35;;;;;;;57.83;29.80;;;1.00;99.90;;;;;;5093357;28;20224;-63
2024/01/14 10:31:06;;;;;;;61.97;29.80;;;1.00;99.90;;;;;;5093510;28;20196;-63
2024/01/14 10:33:33;;;;;;;55.53;27.80;;;0.90;99.90;;;;;;5093532;28;20184;-63
2024/01/14 10:36:00;;;;;;;60.23;28.20;;;0.90;99.90;;;;;;5092937;28;20200;-63
2024/01/14 10:38:26;;;;;;;61.00;28.33;;;0.80;99.90;;;;;;5093276;28;20704;-63
2024/01/14 10:40:52;;;;;;;53.77;27.20;;;0.80;99.90;;;;;;5093607;28;20200;-64
2024/01/14 10:43:23;;;;;;;55.77;26.63;;;0.80;99.90;;;;;;5093271;28;20314;-64
2024/01/14 10:45:50;;;;;;;55.73;27.10;;;0.80;99.90;;;;;;5093244;28;20159;-64
2024/01/14 10:48:23;;;;;;;59.07;27.27;;;0.80;99.90;;;;;;5093464;28;20201;-64
2024/01/14 10:50:53;;;;;;;54.13;26.10;;;0.80;99.90;;;;;;5092870;28;20189;-64
2024/01/14 10:53:23;;;;;;;54.70;25.30;;;0.80;99.90;;;;;;5093155;28;20260;-64
2024/01/14 10:55:56;;;;;;;60.53;27.13;;;0.80;99.90;;;;;;5093567;28;20215;-63
2024/01/14 10:58:26;;;;;;;52.97;25.87;;;0.80;99.90;;;;;;5093106;28;20196;-64
2024/01/14 11:00:59;;;;;;;53.23;26.43;;;0.80;99.90;;;;;;5093220;28;20177;-63
2024/01/14 11:03:27;;;;;;;56.67;26.77;;;0.80;99.90;;;;;;5093080;28;20523;-64
2024/01/14 11:05:53;;;;;;;57.10;26.30;;;0.80;99.90;;;;;;5091469;28;20177;-64
2024/01/14 11:08:21;;;;;;;45.00;24.77;;;0.90;99.90;;;;;;5092837;28;20284;-64
2024/01/14 11:10:49;;;;;;;49.57;25.07;;;0.90;99.90;;;;;;5091586;28;20179;-64
2024/01/14 11:13:22;;;;;;;56.80;26.70;;;0.90;99.90;;;;;;5093198;28;20599;-63
2024/01/14 11:16:13;;;;;;;50.17;25.20;;;0.80;99.90;;;;;;5092865;28;20181;-63
2024/01/14 11:19:05;;;;;;;55.17;26.83;;;0.90;99.90;;;;;;5092934;28;20179;-64
2024/01/14 11:21:56;;;;;;;49.03;26.23;;;0.90;99.90;;;;;;5093204;28;20256;-64
2024/01/14 11:24:25;;;;;;;51.60;25.77;;;0.90;99.90;;;;;;5092867;28;20164;-64
2024/01/14 11:26:54;;;;;;;50.07;27.17;;;0.80;99.90;;;;;;5091497;28;20299;-64
2024/01/14 11:29:33;;;;;;;48.40;26.13;;;0.90;99.90;;;;;;5093066;28;20154;-64
2024/01/14 11:32:16;;;;;;;52.00;25.30;;;0.90;99.90;;;;;;5091876;28;20600;-63
2024/01/14 11:34:52;;;;;;;46.37;24.30;;;0.90;99.90;;;;;;5096638;28;20244;-63
2024/01/14 11:37:30;;;;;;;46.97;25.20;;;0.90;99.90;;;;;;5096516;28;20200;-64
2024/01/14 11:40:22;;;;;;;43.47;23.70;;;0.90;99.90;;;;;;5096453;28;20645;-63
2024/01/14 11:42:52;;;;;;;46.60;23.00;;;0.90;99.90;;;;;;5096487;28;20177;-65
2024/01/14 11:45:24;;;;;;;45.33;22.40;;;0.90;99.90;;;;;;5096755;28;20211;-64
2024/01/14 11:47:54;;;;;;;44.07;23.80;;;0.90;99.90;;;;;;5096868;28;20280;-63
2024/01/14 11:50:21;;;;;;;35.07;19.70;;;0.90;99.90;;;;;;5096305;28;20189;-63
2024/01/14 11:52:49;;;;;;;35.73;20.10;;;1.00;99.90;;;;;;5096507;28;20669;-63
2024/01/14 11:55:19;;;;;;;32.20;19.63;;;1.00;99.90;;;;;;5096358;28;20268;-63
2024/01/14 11:57:46;;;;;;;30.87;19.47;;;1.00;99.90;;;;;;5096280;28;20264;-63
2024/01/14 12:00:14;;;;;;;25.33;17.07;;;1.00;99.90;;;;;;5096349;28;20185;-64
2024/01/14 12:02:40;;;;;;;27.00;16.33;;;1.00;99.90;;;;;;5096557;28;20173;-63
2024/01/14 12:05:16;;;;;;;27.43;17.40;;;0.90;99.90;;;;;;5095784;28;20165;-64
2024/01/14 12:07:42;;;;;;;28.50;16.90;;;1.00;99.90;;;;;;5095934;28;20266;-64
2024/01/14 12:10:13;;;;;;;24.07;16.97;;;1.00;99.90;;;;;;5096320;28;20172;-63
2024/01/14 12:12:38;;;;;;;24.23;15.37;;;1.00;99.90;;;;;;5095968;28;20169;-63
2024/01/14 12:15:05;;;;;;;26.53;16.77;;;1.00;99.90;;;;;;5095910;28;20196;-63
2024/01/14 12:17:31;;;;;;;23.80;15.83;;;1.00;99.90;;;;;;5096079;28;20301;-64
2024/01/14 12:20:04;;;;;;;24.13;15.33;;;1.00;99.90;;;;;;5095831;28;20249;-63
2024/01/14 12:22:30;;;;;;;19.60;15.13;;;0.90;99.90;;;;;;5096020;28;20195;-63
2024/01/14 12:24:56;;;;;;;20.53;15.07;;;1.00;99.90;;;;;;5095696;28;20244;-63
2024/01/14 12:27:22;;;;;;;20.53;15.20;;;0.90;99.90;;;;;;5095665;28;20287;-63
2024/01/14 12:29:48;;;;;;;20.63;14.60;;;0.90;99.90;;;;;;5095494;28;20593;-62
2024/01/14 12:32:15;;;;;;;18.67;14.53;;;0.90;99.90;;;;;;5095821;28;20206;-63
2024/01/14 12:34:43;;;;;;;20.40;14.57;;;0.90;99.90;;;;;;5095427;28;20371;-64